sensor_id;sensor_type;location;lat;lon;timestamp;pressure;altitude;pressure_sealevel;temperature;humidity
38530;BME280;24301;54.332;48.386;2023-04-22T00:00:40;98188.19;;;7.55;71.71
38530;BME280;24301;54.332;48.386;2023-04-22T00:03:07;98189.88;;;7.57;71.57
38530;BME280;24301;54.332;48.386;2023-04-22T00:05:33;98178.50;;;7.61;71.45
38530;BME280;24301;54.332;48.386;2023-04-22T00:07:59;98175.91;;;7.61;71.30
38530;BME280;24301;54.332;48.386;2023-04-22T00:10:26;98191.59;;;7.60;71.38
38530;BME280;24301;54.332;48.386;2023-04-22T00:12:52;98174.13;;;7.64;71.93
38530;BME280;24301;54.332;48.386;2023-04-22T00:15:18;98170.66;;;7.60;71.96
38530;BME280;24301;54.332;48.386;2023-04-22T00:17:47;98171.56;;;7.57;72.41
38530;BME280;24301;54.332;48.386;2023-04-22T00:20:13;98174.19;;;7.59;71.96
38530;BME280;24301;54.332;48.386;2023-04-22T00:22:40;98164.59;;;7.58;72.07
38530;BME280;24301;54.332;48.386;2023-04-22T00:25:06;98168.91;;;7.62;71.22
38530;BME280;24301;54.332;48.386;2023-04-22T00:27:32;98170.63;;;7.65;70.74
38530;BME280;24301;54.332;48.386;2023-04-22T00:29:58;98169.72;;;7.66;70.66
38530;BME280;24301;54.332;48.386;2023-04-22T00:32:24;98167.00;;;7.70;70.86
38530;BME280;24301;54.332;48.386;2023-04-22T00:34:51;98159.97;;;7.75;70.59
38530;BME280;24301;54.332;48.386;2023-04-22T00:37:18;98173.91;;;7.78;70.61
38530;BME280;24301;54.332;48.386;2023-04-22T00:39:44;98163.44;;;7.78;70.17
38530;BME280;24301;54.332;48.386;2023-04-22T00:42:12;98163.44;;;7.76;70.47
38530;BME280;24301;54.332;48.386;2023-04-22T00:44:39;98160.88;;;7.74;70.29
38530;BME280;24301;54.332;48.386;2023-04-22T00:47:06;98160.84;;;7.76;70.44
38530;BME280;24301;54.332;48.386;2023-04-22T00:49:34;98152.03;;;7.80;70.22
38530;BME280;24301;54.332;48.386;2023-04-22T00:52:01;98159.94;;;7.79;69.89
38530;BME280;24301;54.332;48.386;2023-04-22T00:54:28;98161.66;;;7.80;70.20
38530;BME280;24301;54.332;48.386;2023-04-22T00:56:55;98148.59;;;7.78;70.27
38530;BME280;24301;54.332;48.386;2023-04-22T00:59:23;98143.34;;;7.80;70.36
38530;BME280;24301;54.332;48.386;2023-04-22T01:01:50;98145.13;;;7.78;70.33
38530;BME280;24301;54.332;48.386;2023-04-22T01:04:16;98145.91;;;7.83;69.80
38530;BME280;24301;54.332;48.386;2023-04-22T01:06:43;98143.28;;;7.84;70.40
38530;BME280;24301;54.332;48.386;2023-04-22T01:09:10;98148.59;;;7.78;70.01
38530;BME280;24301;54.332;48.386;2023-04-22T01:11:37;98140.78;;;7.76;70.05
38530;BME280;24301;54.332;48.386;2023-04-22T01:14:03;98133.81;;;7.75;70.25
38530;BME280;24301;54.332;48.386;2023-04-22T01:16:30;98136.44;;;7.74;70.10
38530;BME280;24301;54.332;48.386;2023-04-22T01:18:58;98138.28;;;7.69;70.74
38530;BME280;24301;54.332;48.386;2023-04-22T01:21:25;98122.53;;;7.72;70.24
38530;BME280;24301;54.332;48.386;2023-04-22T01:23:53;98118.19;;;7.69;70.61
38530;BME280;24301;54.332;48.386;2023-04-22T01:26:19;98109.53;;;7.67;70.22
38530;BME280;24301;54.332;48.386;2023-04-22T01:28:45;98119.91;;;7.73;70.57
38530;BME280;24301;54.332;48.386;2023-04-22T01:31:11;98125.94;;;7.77;69.75
38530;BME280;24301;54.332;48.386;2023-04-22T01:33:37;98113.78;;;7.73;69.68
38530;BME280;24301;54.332;48.386;2023-04-22T01:36:04;98109.47;;;7.70;70.02
38530;BME280;24301;54.332;48.386;2023-04-22T01:38:30;98106.06;;;7.65;70.22
38530;BME280;24301;54.332;48.386;2023-04-22T01:41:00;98100.84;;;7.65;70.26
38530;BME280;24301;54.332;48.386;2023-04-22T01:43:28;98093.88;;;7.64;69.97
38530;BME280;24301;54.332;48.386;2023-04-22T01:46:00;98095.66;;;7.64;69.98
38530;BME280;24301;54.332;48.386;2023-04-22T01:48:27;98097.38;;;7.63;69.96
38530;BME280;24301;54.332;48.386;2023-04-22T01:50:52;98097.31;;;7.66;70.33
38530;BME280;24301;54.332;48.386;2023-04-22T01:53:18;98094.81;;;7.60;70.45
38530;BME280;24301;54.332;48.386;2023-04-22T01:55:45;98102.78;;;7.54;71.16
38530;BME280;24301;54.332;48.386;2023-04-22T01:58:13;98080.19;;;7.50;70.76
38530;BME280;24301;54.332;48.386;2023-04-22T02:00:40;98082.84;;;7.46;71.31
38530;BME280;24301;54.332;48.386;2023-04-22T02:03:06;98084.59;;;7.46;70.93
38530;BME280;24301;54.332;48.386;2023-04-22T02:05:32;98102.94;;;7.43;71.35
38530;BME280;24301;54.332;48.386;2023-04-22T02:07:58;98099.44;;;7.44;71.06
38530;BME280;24301;54.332;48.386;2023-04-22T02:10:23;98068.06;;;7.45;71.16
38530;BME280;24301;54.332;48.386;2023-04-22T02:12:50;98075.91;;;7.42;71.24
38530;BME280;24301;54.332;48.386;2023-04-22T02:15:16;98075.09;;;7.40;70.95
38530;BME280;24301;54.332;48.386;2023-04-22T02:17:42;98073.34;;;7.39;72.00
38530;BME280;24301;54.332;48.386;2023-04-22T02:20:09;98075.97;;;7.39;71.64
38530;BME280;24301;54.332;48.386;2023-04-22T02:22:38;98079.41;;;7.43;70.89
38530;BME280;24301;54.332;48.386;2023-04-22T02:25:06;98068.91;;;7.46;71.38
38530;BME280;24301;54.332;48.386;2023-04-22T02:27:32;98073.31;;;7.42;71.32
38530;BME280;24301;54.332;48.386;2023-04-22T02:29:58;98069.03;;;7.38;71.38
38530;BME280;24301;54.332;48.386;2023-04-22T02:32:24;98076.00;;;7.38;72.08
38530;BME280;24301;54.332;48.386;2023-04-22T02:34:52;98068.22;;;7.35;71.79
38530;BME280;24301;54.332;48.386;2023-04-22T02:37:20;98066.50;;;7.32;71.88
38530;BME280;24301;54.332;48.386;2023-04-22T02:39:48;98058.66;;;7.33;72.11
38530;BME280;24301;54.332;48.386;2023-04-22T02:42:14;98069.13;;;7.33;72.49
38530;BME280;24301;54.332;48.386;2023-04-22T02:44:40;98069.19;;;7.29;72.49
38530;BME280;24301;54.332;48.386;2023-04-22T02:47:06;98068.34;;;7.27;72.56
38530;BME280;24301;54.332;48.386;2023-04-22T02:49:33;98071.78;;;7.27;72.81
38530;BME280;24301;54.332;48.386;2023-04-22T02:51:59;98061.34;;;7.29;73.24
38530;BME280;24301;54.332;48.386;2023-04-22T02:54:25;98073.41;;;7.38;72.26
38530;BME280;24301;54.332;48.386;2023-04-22T02:56:51;98070.78;;;7.36;72.24
38530;BME280;24301;54.332;48.386;2023-04-22T02:59:17;98063.78;;;7.40;72.78
38530;BME280;24301;54.332;48.386;2023-04-22T03:01:43;98068.06;;;7.42;72.54
38530;BME280;24301;54.332;48.386;2023-04-22T03:04:14;98065.56;;;7.38;72.74
38530;BME280;24301;54.332;48.386;2023-04-22T03:06:40;98076.81;;;7.41;72.94
38530;BME280;24301;54.332;48.386;2023-04-22T03:09:06;98069.84;;;7.40;72.89
38530;BME280;24301;54.332;48.386;2023-04-22T03:11:33;98059.34;;;7.43;72.61
38530;BME280;24301;54.332;48.386;2023-04-22T03:13:59;98075.03;;;7.43;72.95
38530;BME280;24301;54.332;48.386;2023-04-22T03:16:26;98079.47;;;7.38;73.32
38530;BME280;24301;54.332;48.386;2023-04-22T03:18:54;98080.34;;;7.39;73.25
38530;BME280;24301;54.332;48.386;2023-04-22T03:21:20;98077.69;;;7.42;73.36
38530;BME280;24301;54.332;48.386;2023-04-22T03:23:46;98066.28;;;7.47;73.36
38530;BME280;24301;54.332;48.386;2023-04-22T03:26:12;98068.00;;;7.47;72.92
38530;BME280;24301;54.332;48.386;2023-04-22T03:28:39;98068.00;;;7.48;73.23
38530;BME280;24301;54.332;48.386;2023-04-22T03:31:05;98058.50;;;7.43;73.34
38530;BME280;24301;54.332;48.386;2023-04-22T03:33:32;98066.41;;;7.38;73.78
38530;BME280;24301;54.332;48.386;2023-04-22T03:36:04;98062.91;;;7.39;73.42
38530;BME280;24301;54.332;48.386;2023-04-22T03:38:30;98068.91;;;7.46;73.16
38530;BME280;24301;54.332;48.386;2023-04-22T03:40:56;98062.84;;;7.42;73.64
38530;BME280;24301;54.332;48.386;2023-04-22T03:43:40;98078.47;;;7.48;73.76
38530;BME280;24301;54.332;48.386;2023-04-22T03:46:08;98084.44;;;7.55;72.97
38530;BME280;24301;54.332;48.386;2023-04-22T03:48:38;98082.75;;;7.53;73.47
38530;BME280;24301;54.332;48.386;2023-04-22T03:51:09;98071.41;;;7.52;73.27
38530;BME280;24301;54.332;48.386;2023-04-22T03:53:36;98073.19;;;7.52;74.03
38530;BME280;24301;54.332;48.386;2023-04-22T03:56:04;98080.09;;;7.54;73.73
38530;BME280;24301;54.332;48.386;2023-04-22T03:58:32;98067.84;;;7.58;73.19
38530;BME280;24301;54.332;48.386;2023-04-22T04:01:01;98067.84;;;7.56;73.42
38530;BME280;24301;54.332;48.386;2023-04-22T04:03:27;98059.09;;;7.59;73.20
38530;BME280;24301;54.332;48.386;2023-04-22T04:05:54;98059.09;;;7.59;73.46
38530;BME280;24301;54.332;48.386;2023-04-22T04:08:21;98059.91;;;7.62;73.72
38530;BME280;24301;54.332;48.386;2023-04-22T04:10:48;98061.59;;;7.67;73.50
38530;BME280;24301;54.332;48.386;2023-04-22T04:13:15;98066.78;;;7.68;72.82
38530;BME280;24301;54.332;48.386;2023-04-22T04:16:13;98070.22;;;7.72;72.92
38530;BME280;24301;54.332;48.386;2023-04-22T04:18:42;98064.13;;;7.71;72.83
38530;BME280;24301;54.332;48.386;2023-04-22T04:21:08;98073.66;;;7.75;72.93
38530;BME280;24301;54.332;48.386;2023-04-22T04:23:39;98058.78;;;7.78;72.91
38530;BME280;24301;54.332;48.386;2023-04-22T04:26:05;98067.47;;;7.80;72.90
38530;BME280;24301;54.332;48.386;2023-04-22T04:28:33;98056.88;;;7.86;72.68
38530;BME280;24301;54.332;48.386;2023-04-22T04:31:01;98053.38;;;7.88;72.70
38530;BME280;24301;54.332;48.386;2023-04-22T04:33:31;98055.88;;;7.95;72.46
38530;BME280;24301;54.332;48.386;2023-04-22T04:35:58;98052.22;;;8.03;72.27
38530;BME280;24301;54.332;48.386;2023-04-22T04:38:29;98053.81;;;8.11;72.24
38530;BME280;24301;54.332;48.386;2023-04-22T04:40:56;98040.59;;;8.17;71.57
38530;BME280;24301;54.332;48.386;2023-04-22T04:43:23;98049.25;;;8.22;71.24
38530;BME280;24301;54.332;48.386;2023-04-22T04:45:57;98037.06;;;8.21;71.45
38530;BME280;24301;54.332;48.386;2023-04-22T04:48:31;98039.59;;;8.24;71.23
38530;BME280;24301;54.332;48.386;2023-04-22T04:51:05;98036.06;;;8.27;70.83
38530;BME280;24301;54.332;48.386;2023-04-22T04:53:36;98036.66;;;8.40;70.61
38530;BME280;24301;54.332;48.386;2023-04-22T04:56:02;98033.84;;;8.51;69.92
38530;BME280;24301;54.332;48.386;2023-04-22T04:58:29;98038.78;;;8.66;69.99
38530;BME280;24301;54.332;48.386;2023-04-22T05:01:15;98047.06;;;8.87;69.50
38530;BME280;24301;54.332;48.386;2023-04-22T05:03:43;98044.00;;;9.07;68.46
38530;BME280;24301;54.332;48.386;2023-04-22T05:06:11;98033.75;;;9.32;67.81
38530;BME280;24301;54.332;48.386;2023-04-22T05:08:39;98032.16;;;9.63;66.88
38530;BME280;24301;54.332;48.386;2023-04-22T05:11:08;98025.19;;;9.95;66.16
38530;BME280;24301;54.332;48.386;2023-04-22T05:13:34;98030.28;;;10.01;64.89
38530;BME280;24301;54.332;48.386;2023-04-22T05:16:01;98027.69;;;10.00;64.73
38530;BME280;24301;54.332;48.386;2023-04-22T05:18:27;98036.09;;;10.13;64.72
38530;BME280;24301;54.332;48.386;2023-04-22T05:20:54;98030.66;;;10.19;63.84
38530;BME280;24301;54.332;48.386;2023-04-22T05:23:24;98021.72;;;10.26;63.32
38530;BME280;24301;54.332;48.386;2023-04-22T05:25:53;98016.13;;;10.40;63.14
38530;BME280;24301;54.332;48.386;2023-04-22T05:28:19;98013.19;;;10.51;62.41
38530;BME280;24301;54.332;48.386;2023-04-22T05:30:50;98020.06;;;10.55;62.10
38530;BME280;24301;54.332;48.386;2023-04-22T05:33:16;98012.34;;;10.49;61.45
38530;BME280;24301;54.332;48.386;2023-04-22T05:35:42;98005.78;;;10.32;61.62
38530;BME280;24301;54.332;48.386;2023-04-22T05:38:09;98022.44;;;10.31;61.95
38530;BME280;24301;54.332;48.386;2023-04-22T05:40:37;98020.00;;;10.25;61.87
38530;BME280;24301;54.332;48.386;2023-04-22T05:43:05;98007.28;;;10.11;61.81
38530;BME280;24301;54.332;48.386;2023-04-22T05:45:32;98017.38;;;9.92;62.50
38530;BME280;24301;54.332;48.386;2023-04-22T05:47:58;98020.22;;;9.84;62.67
38530;BME280;24301;54.332;48.386;2023-04-22T05:50:28;98017.03;;;9.73;62.94
38530;BME280;24301;54.332;48.386;2023-04-22T05:53:04;98009.97;;;9.75;63.08
38530;BME280;24301;54.332;48.386;2023-04-22T05:55:29;98004.56;;;9.81;63.04
38530;BME280;24301;54.332;48.386;2023-04-22T05:57:55;98003.53;;;9.87;62.89
38530;BME280;24301;54.332;48.386;2023-04-22T06:00:40;98002.16;;;10.05;62.67
38530;BME280;24301;54.332;48.386;2023-04-22T06:03:19;97999.41;;;10.10;62.28
38530;BME280;24301;54.332;48.386;2023-04-22T06:05:44;98001.16;;;10.11;61.99
38530;BME280;24301;54.332;48.386;2023-04-22T06:08:11;97989.09;;;10.03;62.14
38530;BME280;24301;54.332;48.386;2023-04-22T06:10:37;97990.63;;;10.11;62.41
38530;BME280;24301;54.332;48.386;2023-04-22T06:13:03;97991.38;;;10.16;61.85
38530;BME280;24301;54.332;48.386;2023-04-22T06:15:29;97991.84;;;10.30;61.47
38530;BME280;24301;54.332;48.386;2023-04-22T06:17:55;97991.66;;;10.37;60.92
38530;BME280;24301;54.332;48.386;2023-04-22T06:20:21;97975.41;;;10.24;60.63
38530;BME280;24301;54.332;48.386;2023-04-22T06:22:47;97981.38;;;10.29;60.95
38530;BME280;24301;54.332;48.386;2023-04-22T06:25:13;97983.81;;;10.35;60.40
38530;BME280;24301;54.332;48.386;2023-04-22T06:27:39;97979.28;;;10.42;60.48
38530;BME280;24301;54.332;48.386;2023-04-22T06:30:06;97987.72;;;10.53;59.95
38530;BME280;24301;54.332;48.386;2023-04-22T06:32:32;97983.28;;;10.55;59.89
38530;BME280;24301;54.332;48.386;2023-04-22T06:34:58;97980.16;;;10.42;59.81
38530;BME280;24301;54.332;48.386;2023-04-22T06:37:24;97974.00;;;10.43;59.68
38530;BME280;24301;54.332;48.386;2023-04-22T06:39:51;97974.59;;;10.52;59.64
38530;BME280;24301;54.332;48.386;2023-04-22T06:42:36;97973.75;;;10.51;59.15
38530;BME280;24301;54.332;48.386;2023-04-22T06:45:20;97961.97;;;10.64;58.89
38530;BME280;24301;54.332;48.386;2023-04-22T06:48:11;97973.28;;;10.67;58.31
38530;BME280;24301;54.332;48.386;2023-04-22T06:51:08;97968.66;;;10.75;58.14
38530;BME280;24301;54.332;48.386;2023-04-22T06:53:34;97962.75;;;10.67;58.13
38530;BME280;24301;54.332;48.386;2023-04-22T06:56:00;97972.00;;;10.80;57.80
38530;BME280;24301;54.332;48.386;2023-04-22T06:58:27;97981.41;;;10.87;57.42
38530;BME280;24301;54.332;48.386;2023-04-22T07:00:55;97966.09;;;11.00;57.33
38530;BME280;24301;54.332;48.386;2023-04-22T07:03:21;97951.28;;;10.98;57.09
38530;BME280;24301;54.332;48.386;2023-04-22T07:05:59;97966.13;;;10.99;57.02
38530;BME280;24301;54.332;48.386;2023-04-22T07:08:25;97962.31;;;11.09;56.66
38530;BME280;24301;54.332;48.386;2023-04-22T07:10:54;97976.50;;;11.32;56.55
38530;BME280;24301;54.332;48.386;2023-04-22T07:13:54;97961.88;;;11.48;55.83
38530;BME280;24301;54.332;48.386;2023-04-22T07:16:20;97971.75;;;11.69;54.97
38530;BME280;24301;54.332;48.386;2023-04-22T07:18:46;97949.91;;;12.16;53.94
38530;BME280;24301;54.332;48.386;2023-04-22T07:21:12;97971.50;;;12.49;52.91
38530;BME280;24301;54.332;48.386;2023-04-22T07:23:38;97956.34;;;13.21;51.54
38530;BME280;24301;54.332;48.386;2023-04-22T07:26:07;97959.28;;;13.98;49.46
38530;BME280;24301;54.332;48.386;2023-04-22T07:28:34;97945.44;;;15.08;47.31
38530;BME280;24301;54.332;48.386;2023-04-22T07:31:02;97944.88;;;16.07;45.01
38530;BME280;24301;54.332;48.386;2023-04-22T07:33:28;97938.38;;;16.62;43.27
38530;BME280;24301;54.332;48.386;2023-04-22T07:35:54;97939.97;;;16.97;41.75
38530;BME280;24301;54.332;48.386;2023-04-22T07:38:20;97941.16;;;17.23;40.76
38530;BME280;24301;54.332;48.386;2023-04-22T07:40:50;97937.22;;;17.76;39.68
38530;BME280;24301;54.332;48.386;2023-04-22T07:43:16;97931.22;;;17.27;39.79
38530;BME280;24301;54.332;48.386;2023-04-22T07:45:42;97952.63;;;17.55;39.47
38530;BME280;24301;54.332;48.386;2023-04-22T07:48:08;97935.13;;;17.36;39.09
38530;BME280;24301;54.332;48.386;2023-04-22T07:50:34;97948.78;;;17.89;38.44
38530;BME280;24301;54.332;48.386;2023-04-22T07:53:00;97965.94;;;17.69;37.96
38530;BME280;24301;54.332;48.386;2023-04-22T07:55:26;97940.69;;;17.62;38.40
38530;BME280;24301;54.332;48.386;2023-04-22T07:57:52;97940.56;;;17.94;37.82
38530;BME280;24301;54.332;48.386;2023-04-22T08:00:18;97957.03;;;17.70;38.18
38530;BME280;24301;54.332;48.386;2023-04-22T08:02:44;97954.00;;;17.76;37.66
38530;BME280;24301;54.332;48.386;2023-04-22T08:05:12;97952.78;;;17.37;38.55
38530;BME280;24301;54.332;48.386;2023-04-22T08:07:43;97950.66;;;16.95;38.50
38530;BME280;24301;54.332;48.386;2023-04-22T08:10:10;97960.16;;;16.35;40.02
38530;BME280;24301;54.332;48.386;2023-04-22T08:12:39;97981.25;;;15.15;42.21
38530;BME280;24301;54.332;48.386;2023-04-22T08:15:05;97959.25;;;14.78;43.05
38530;BME280;24301;54.332;48.386;2023-04-22T08:17:31;97975.22;;;14.36;44.05
38530;BME280;24301;54.332;48.386;2023-04-22T08:19:58;97950.81;;;14.11;44.58
38530;BME280;24301;54.332;48.386;2023-04-22T08:22:23;97944.13;;;14.03;44.83
38530;BME280;24301;54.332;48.386;2023-04-22T08:24:50;97967.97;;;13.81;45.27
38530;BME280;24301;54.332;48.386;2023-04-22T08:27:16;97969.88;;;13.57;45.73
38530;BME280;24301;54.332;48.386;2023-04-22T08:29:43;97969.22;;;13.72;45.48
38530;BME280;24301;54.332;48.386;2023-04-22T08:32:09;97958.50;;;13.75;45.50
38530;BME280;24301;54.332;48.386;2023-04-22T08:34:35;97967.81;;;13.63;45.89
38530;BME280;24301;54.332;48.386;2023-04-22T08:37:01;97961.97;;;13.57;46.14
38530;BME280;24301;54.332;48.386;2023-04-22T08:39:29;97947.56;;;13.43;46.55
38530;BME280;24301;54.332;48.386;2023-04-22T08:41:58;97963.19;;;13.05;47.22
38530;BME280;24301;54.332;48.386;2023-04-22T08:44:24;97972.38;;;12.94;48.27
38530;BME280;24301;54.332;48.386;2023-04-22T08:46:51;97971.56;;;12.92;48.15
38530;BME280;24301;54.332;48.386;2023-04-22T08:49:18;97954.34;;;12.84;48.49
38530;BME280;24301;54.332;48.386;2023-04-22T08:51:44;97992.91;;;12.64;49.05
38530;BME280;24301;54.332;48.386;2023-04-22T08:54:11;97973.16;;;12.52;49.40
38530;BME280;24301;54.332;48.386;2023-04-22T08:56:44;97971.78;;;12.42;49.41
38530;BME280;24301;54.332;48.386;2023-04-22T08:59:13;97963.47;;;12.29;49.53
38530;BME280;24301;54.332;48.386;2023-04-22T09:04:52;97966.72;;;12.59;49.98
38530;BME280;24301;54.332;48.386;2023-04-22T09:07:23;97971.28;;;12.78;49.25
38530;BME280;24301;54.332;48.386;2023-04-22T09:09:50;97970.59;;;12.73;49.40
38530;BME280;24301;54.332;48.386;2023-04-22T09:12:19;97980.47;;;12.68;49.41
38530;BME280;24301;54.332;48.386;2023-04-22T09:14:46;97984.50;;;12.54;50.26
38530;BME280;24301;54.332;48.386;2023-04-22T09:17:15;97969.47;;;12.56;50.17
38530;BME280;24301;54.332;48.386;2023-04-22T09:19:42;97973.72;;;12.60;50.14
38530;BME280;24301;54.332;48.386;2023-04-22T09:22:12;97966.22;;;12.72;49.90
38530;BME280;24301;54.332;48.386;2023-04-22T09:24:50;97982.88;;;12.50;49.99
38530;BME280;24301;54.332;48.386;2023-04-22T09:27:16;97975.16;;;12.45;51.03
38530;BME280;24301;54.332;48.386;2023-04-22T09:29:50;97986.84;;;12.38;50.83
38530;BME280;24301;54.332;48.386;2023-04-22T09:32:22;97973.31;;;12.47;51.25
38530;BME280;24301;54.332;48.386;2023-04-22T09:34:50;97999.84;;;12.43;50.95
38530;BME280;24301;54.332;48.386;2023-04-22T09:37:34;97988.50;;;12.41;51.08
38530;BME280;24301;54.332;48.386;2023-04-22T09:40:00;97994.16;;;12.30;51.29
38530;BME280;24301;54.332;48.386;2023-04-22T09:42:26;97979.78;;;12.39;51.58
38530;BME280;24301;54.332;48.386;2023-04-22T09:44:52;97977.00;;;12.43;51.45
38530;BME280;24301;54.332;48.386;2023-04-22T09:47:19;97990.72;;;12.52;51.34
38530;BME280;24301;54.332;48.386;2023-04-22T09:49:49;97978.53;;;12.49;51.14
38530;BME280;24301;54.332;48.386;2023-04-22T09:52:22;97994.75;;;12.38;52.00
38530;BME280;24301;54.332;48.386;2023-04-22T09:54:54;97985.19;;;12.12;52.27
38530;BME280;24301;54.332;48.386;2023-04-22T09:57:20;97973.56;;;12.17;52.30
38530;BME280;24301;54.332;48.386;2023-04-22T09:59:49;97975.44;;;12.14;52.39
38530;BME280;24301;54.332;48.386;2023-04-22T10:02:16;97986.84;;;12.14;52.72
38530;BME280;24301;54.332;48.386;2023-04-22T10:04:42;97984.69;;;12.00;52.84
38530;BME280;24301;54.332;48.386;2023-04-22T10:07:08;97975.78;;;12.04;52.71
38530;BME280;24301;54.332;48.386;2023-04-22T10:09:35;97981.06;;;12.04;53.31
38530;BME280;24301;54.332;48.386;2023-04-22T10:12:01;97983.91;;;12.22;52.92
38530;BME280;24301;54.332;48.386;2023-04-22T10:14:27;98005.97;;;12.19;53.13
38530;BME280;24301;54.332;48.386;2023-04-22T10:16:58;97987.47;;;12.21;53.66
38530;BME280;24301;54.332;48.386;2023-04-22T10:19:27;97980.34;;;12.23;53.24
38530;BME280;24301;54.332;48.386;2023-04-22T10:21:56;97982.94;;;12.25;53.45
38530;BME280;24301;54.332;48.386;2023-04-22T10:24:25;97974.88;;;12.29;53.07
38530;BME280;24301;54.332;48.386;2023-04-22T10:26:56;97973.50;;;12.19;53.68
38530;BME280;24301;54.332;48.386;2023-04-22T10:29:34;97985.03;;;12.40;53.26
38530;BME280;24301;54.332;48.386;2023-04-22T10:34:43;97990.97;;;12.45;53.02
38530;BME280;24301;54.332;48.386;2023-04-22T10:37:10;97983.47;;;12.34;53.29
38530;BME280;24301;54.332;48.386;2023-04-22T10:39:38;97992.16;;;12.36;53.45
38530;BME280;24301;54.332;48.386;2023-04-22T10:42:10;97991.50;;;12.31;53.97
38530;BME280;24301;54.332;48.386;2023-04-22T10:44:53;97974.00;;;12.29;53.55
38530;BME280;24301;54.332;48.386;2023-04-22T10:47:36;97995.50;;;12.42;53.78
38530;BME280;24301;54.332;48.386;2023-04-22T10:52:36;97979.91;;;12.35;54.13
38530;BME280;24301;54.332;48.386;2023-04-22T10:55:02;97986.53;;;12.46;53.69
38530;BME280;24301;54.332;48.386;2023-04-22T10:57:37;97993.88;;;12.38;53.64
38530;BME280;24301;54.332;48.386;2023-04-22T11:00:28;97990.91;;;12.47;53.53
38530;BME280;24301;54.332;48.386;2023-04-22T11:05:30;97990.41;;;12.83;52.70
38530;BME280;24301;54.332;48.386;2023-04-22T11:08:17;97977.66;;;12.94;51.76
38530;BME280;24301;54.332;48.386;2023-04-22T11:10:47;97981.47;;;12.87;51.78
38530;BME280;24301;54.332;48.386;2023-04-22T11:13:14;97980.41;;;12.91;51.50
38530;BME280;24301;54.332;48.386;2023-04-22T11:15:42;97985.38;;;12.99;51.01
38530;BME280;24301;54.332;48.386;2023-04-22T11:18:17;97996.56;;;13.06;51.19
38530;BME280;24301;54.332;48.386;2023-04-22T11:20:44;97993.72;;;12.88;51.97
38530;BME280;24301;54.332;48.386;2023-04-22T11:23:10;98002.72;;;12.60;52.56
38530;BME280;24301;54.332;48.386;2023-04-22T11:25:36;97999.16;;;12.38;53.48
38530;BME280;24301;54.332;48.386;2023-04-22T11:28:02;98006.31;;;12.34;53.81
38530;BME280;24301;54.332;48.386;2023-04-22T11:30:28;97995.97;;;12.29;53.38
38530;BME280;24301;54.332;48.386;2023-04-22T11:32:58;98004.72;;;12.30;53.87
38530;BME280;24301;54.332;48.386;2023-04-22T11:35:27;98010.91;;;12.29;53.93
38530;BME280;24301;54.332;48.386;2023-04-22T11:38:00;97999.78;;;12.20;54.05
38530;BME280;24301;54.332;48.386;2023-04-22T11:40:32;98000.81;;;12.16;54.32
38530;BME280;24301;54.332;48.386;2023-04-22T11:43:01;98002.81;;;12.10;54.46
38530;BME280;24301;54.332;48.386;2023-04-22T11:45:29;98009.13;;;11.78;56.01
38530;BME280;24301;54.332;48.386;2023-04-22T11:47:56;98018.03;;;11.74;56.32
38530;BME280;24301;54.332;48.386;2023-04-22T11:50:25;98023.50;;;11.68;56.51
38530;BME280;24301;54.332;48.386;2023-04-22T11:55:27;98011.63;;;11.56;57.16
38530;BME280;24301;54.332;48.386;2023-04-22T12:00:22;98023.94;;;11.56;57.55
38530;BME280;24301;54.332;48.386;2023-04-22T12:02:56;98015.03;;;11.60;57.70
38530;BME280;24301;54.332;48.386;2023-04-22T12:05:34;98013.16;;;11.63;57.56
38530;BME280;24301;54.332;48.386;2023-04-22T12:08:05;98017.75;;;11.57;57.64
38530;BME280;24301;54.332;48.386;2023-04-22T12:10:32;98016.72;;;11.62;57.53
38530;BME280;24301;54.332;48.386;2023-04-22T12:12:59;98014.00;;;11.64;58.10
38530;BME280;24301;54.332;48.386;2023-04-22T12:15:25;98009.94;;;11.81;57.42
38530;BME280;24301;54.332;48.386;2023-04-22T12:17:51;98014.03;;;11.89;56.77
38530;BME280;24301;54.332;48.386;2023-04-22T12:20:30;98020.78;;;11.97;56.83
38530;BME280;24301;54.332;48.386;2023-04-22T12:22:56;98019.81;;;11.99;56.47
38530;BME280;24301;54.332;48.386;2023-04-22T12:25:22;98021.63;;;11.97;56.90
38530;BME280;24301;54.332;48.386;2023-04-22T12:27:48;98025.59;;;12.11;56.57
38530;BME280;24301;54.332;48.386;2023-04-22T12:30:14;98012.66;;;12.04;56.63
38530;BME280;24301;54.332;48.386;2023-04-22T12:32:40;98007.78;;;11.92;56.72
38530;BME280;24301;54.332;48.386;2023-04-22T12:35:06;98015.94;;;11.84;56.68
38530;BME280;24301;54.332;48.386;2023-04-22T12:37:33;98021.19;;;11.84;57.13
38530;BME280;24301;54.332;48.386;2023-04-22T12:39:59;98011.13;;;11.72;57.02
38530;BME280;24301;54.332;48.386;2023-04-22T12:42:25;98022.81;;;11.63;57.33
38530;BME280;24301;54.332;48.386;2023-04-22T12:44:51;98026.84;;;11.73;57.45
38530;BME280;24301;54.332;48.386;2023-04-22T12:47:17;98034.16;;;11.65;57.81
38530;BME280;24301;54.332;48.386;2023-04-22T12:49:42;98017.53;;;11.63;57.59
38530;BME280;24301;54.332;48.386;2023-04-22T12:52:09;98020.97;;;11.65;57.34
38530;BME280;24301;54.332;48.386;2023-04-22T12:54:35;98022.00;;;11.61;57.51
38530;BME280;24301;54.332;48.386;2023-04-22T12:57:02;98022.13;;;11.58;57.67
38530;BME280;24301;54.332;48.386;2023-04-22T12:59:28;98034.94;;;11.67;57.42
38530;BME280;24301;54.332;48.386;2023-04-22T13:01:54;98025.91;;;11.74;56.67
38530;BME280;24301;54.332;48.386;2023-04-22T13:04:20;98022.22;;;11.80;56.59
38530;BME280;24301;54.332;48.386;2023-04-22T13:06:46;98024.38;;;11.94;55.73
38530;BME280;24301;54.332;48.386;2023-04-22T13:09:15;98026.22;;;11.92;55.62
38530;BME280;24301;54.332;48.386;2023-04-22T13:11:41;98010.63;;;11.86;55.08
38530;BME280;24301;54.332;48.386;2023-04-22T13:14:06;98040.66;;;11.80;55.34
38530;BME280;24301;54.332;48.386;2023-04-22T13:16:32;98036.25;;;11.81;55.56